sensor_id;sensor_type;location;lat;lon;timestamp;P1;durP1;ratioP1;P2;durP2;ratioP2
28958;SDS011;16066;0.000;0.000;2022-12-07T00:02:24;15.90;;;11.40;;
28958;SDS011;16066;0.000;0.000;2022-12-07T00:04:49;15.90;;;11.60;;
28958;SDS011;16066;0.000;0.000;2022-12-07T00:07:15;16.10;;;11.77;;
28958;SDS011;16066;0.000;0.000;2022-12-07T00:09:40;15.77;;;11.30;;
28958;SDS011;16066;0.000;0.000;2022-12-07T00:12:06;18.47;;;12.10;;
28958;SDS011;16066;0.000;0.000;2022-12-07T00:14:32;14.70;;;10.70;;
28958;SDS011;16066;0.000;0.000;2022-12-07T00:16:58;17.50;;;12.30;;
28958;SDS011;16066;0.000;0.000;2022-12-07T00:19:24;16.23;;;11.20;;
28958;SDS011;16066;0.000;0.000;2022-12-07T00:21:49;15.87;;;11.17;;
28958;SDS011;16066;0.000;0.000;2022-12-07T00:24:15;15.57;;;10.90;;
28958;SDS011;16066;0.000;0.000;2022-12-07T00:26:41;16.20;;;11.90;;
28958;SDS011;16066;0.000;0.000;2022-12-07T00:29:09;15.80;;;11.70;;
28958;SDS011;16066;0.000;0.000;2022-12-07T00:31:40;19.60;;;12.00;;
28958;SDS011;16066;0.000;0.000;2022-12-07T00:34:06;18.57;;;12.50;;
28958;SDS011;16066;0.000;0.000;2022-12-07T00:36:36;19.20;;;11.90;;
28958;SDS011;16066;0.000;0.000;2022-12-07T00:39:01;16.40;;;12.07;;
28958;SDS011;16066;0.000;0.000;2022-12-07T00:41:27;18.53;;;11.77;;
28958;SDS011;16066;0.000;0.000;2022-12-07T00:43:53;18.10;;;12.80;;
28958;SDS011;16066;0.000;0.000;2022-12-07T00:46:19;15.47;;;11.80;;
28958;SDS011;16066;0.000;0.000;2022-12-07T00:48:46;16.50;;;12.37;;
28958;SDS011;16066;0.000;0.000;2022-12-07T00:51:13;18.07;;;12.43;;
28958;SDS011;16066;0.000;0.000;2022-12-07T00:53:40;16.50;;;12.00;;
28958;SDS011;16066;0.000;0.000;2022-12-07T00:56:09;19.57;;;12.90;;
28958;SDS011;16066;0.000;0.000;2022-12-07T00:58:37;17.80;;;12.80;;
28958;SDS011;16066;0.000;0.000;2022-12-07T01:01:04;18.47;;;12.80;;
28958;SDS011;16066;0.000;0.000;2022-12-07T01:03:31;18.83;;;12.10;;
28958;SDS011;16066;0.000;0.000;2022-12-07T01:05:57;16.03;;;12.53;;
28958;SDS011;16066;0.000;0.000;2022-12-07T01:08:23;16.70;;;12.33;;
28958;SDS011;16066;0.000;0.000;2022-12-07T01:10:49;17.80;;;12.93;;
28958;SDS011;16066;0.000;0.000;2022-12-07T01:13:22;17.97;;;12.73;;
28958;SDS011;16066;0.000;0.000;2022-12-07T01:15:47;14.27;;;11.03;;
28958;SDS011;16066;0.000;0.000;2022-12-07T01:18:13;16.50;;;12.07;;
28958;SDS011;16066;0.000;0.000;2022-12-07T01:20:38;19.27;;;12.67;;
28958;SDS011;16066;0.000;0.000;2022-12-07T01:23:04;18.10;;;12.40;;
28958;SDS011;16066;0.000;0.000;2022-12-07T01:25:30;18.10;;;12.23;;
28958;SDS011;16066;0.000;0.000;2022-12-07T01:27:55;15.97;;;12.07;;
28958;SDS011;16066;0.000;0.000;2022-12-07T01:30:21;14.73;;;11.87;;
28958;SDS011;16066;0.000;0.000;2022-12-07T01:32:46;17.93;;;12.10;;
28958;SDS011;16066;0.000;0.000;2022-12-07T01:35:12;16.27;;;11.70;;
28958;SDS011;16066;0.000;0.000;2022-12-07T01:37:38;18.37;;;12.70;;
28958;SDS011;16066;0.000;0.000;2022-12-07T01:40:04;16.90;;;12.20;;
28958;SDS011;16066;0.000;0.000;2022-12-07T01:42:32;18.87;;;12.97;;
28958;SDS011;16066;0.000;0.000;2022-12-07T01:47:43;16.10;;;13.00;;
28958;SDS011;16066;0.000;0.000;2022-12-07T01:50:11;20.00;;;13.43;;
28958;SDS011;16066;0.000;0.000;2022-12-07T01:52:37;20.03;;;14.03;;
28958;SDS011;16066;0.000;0.000;2022-12-07T01:55:06;17.67;;;12.73;;
28958;SDS011;16066;0.000;0.000;2022-12-07T01:57:34;17.27;;;12.67;;
28958;SDS011;16066;0.000;0.000;2022-12-07T02:00:05;18.87;;;13.90;;
28958;SDS011;16066;0.000;0.000;2022-12-07T02:05:28;19.17;;;13.63;;
28958;SDS011;16066;0.000;0.000;2022-12-07T02:07:55;22.13;;;15.27;;
28958;SDS011;16066;0.000;0.000;2022-12-07T02:10:22;18.60;;;14.13;;
28958;SDS011;16066;0.000;0.000;2022-12-07T02:12:56;19.17;;;13.37;;
28958;SDS011;16066;0.000;0.000;2022-12-07T02:29:54;20.10;;;13.60;;
28958;SDS011;16066;0.000;0.000;2022-12-07T02:32:26;20.03;;;14.10;;
28958;SDS011;16066;0.000;0.000;2022-12-07T02:37:40;21.20;;;14.90;;
28958;SDS011;16066;0.000;0.000;2022-12-07T02:40:55;22.23;;;14.90;;
28958;SDS011;16066;0.000;0.000;2022-12-07T02:43:10;19.97;;;14.50;;
28958;SDS011;16066;0.000;0.000;2022-12-07T02:45:41;21.10;;;14.80;;
28958;SDS011;16066;0.000;0.000;2022-12-07T02:48:09;22.70;;;14.53;;
28958;SDS011;16066;0.000;0.000;2022-12-07T02:50:38;19.50;;;14.10;;
28958;SDS011;16066;0.000;0.000;2022-12-07T02:53:04;24.20;;;14.77;;
28958;SDS011;16066;0.000;0.000;2022-12-07T02:55:32;25.30;;;15.97;;
28958;SDS011;16066;0.000;0.000;2022-12-07T02:58:18;23.20;;;14.37;;
28958;SDS011;16066;0.000;0.000;2022-12-07T03:01:28;22.77;;;15.73;;
28958;SDS011;16066;0.000;0.000;2022-12-07T03:04:00;22.90;;;15.47;;
28958;SDS011;16066;0.000;0.000;2022-12-07T03:07:05;23.30;;;15.63;;
28958;SDS011;16066;0.000;0.000;2022-12-07T03:10:00;22.50;;;15.80;;
28958;SDS011;16066;0.000;0.000;2022-12-07T03:12:43;22.47;;;15.57;;
28958;SDS011;16066;0.000;0.000;2022-12-07T03:15:20;24.33;;;17.03;;
28958;SDS011;16066;0.000;0.000;2022-12-07T03:17:59;19.83;;;15.13;;
28958;SDS011;16066;0.000;0.000;2022-12-07T03:20:27;22.23;;;15.47;;
28958;SDS011;16066;0.000;0.000;2022-12-07T03:22:54;23.50;;;17.13;;
28958;SDS011;16066;0.000;0.000;2022-12-07T03:25:20;22.23;;;16.73;;
28958;SDS011;16066;0.000;0.000;2022-12-07T03:30:19;25.60;;;17.83;;
28958;SDS011;16066;0.000;0.000;2022-12-07T03:33:06;26.57;;;17.67;;
28958;SDS011;16066;0.000;0.000;2022-12-07T03:36:06;28.23;;;17.90;;
28958;SDS011;16066;0.000;0.000;2022-12-07T03:38:36;25.77;;;17.43;;
28958;SDS011;16066;0.000;0.000;2022-12-07T03:41:09;24.13;;;16.67;;
28958;SDS011;16066;0.000;0.000;2022-12-07T03:43:39;25.23;;;17.97;;
28958;SDS011;16066;0.000;0.000;2022-12-07T03:48:54;25.70;;;18.00;;
28958;SDS011;16066;0.000;0.000;2022-12-07T03:51:28;28.03;;;19.50;;
28958;SDS011;16066;0.000;0.000;2022-12-07T03:54:09;24.60;;;16.90;;
28958;SDS011;16066;0.000;0.000;2022-12-07T03:56:42;28.40;;;17.57;;
28958;SDS011;16066;0.000;0.000;2022-12-07T03:59:10;29.97;;;20.17;;
28958;SDS011;16066;0.000;0.000;2022-12-07T04:01:37;29.00;;;18.30;;
28958;SDS011;16066;0.000;0.000;2022-12-07T04:04:03;26.33;;;18.80;;
28958;SDS011;16066;0.000;0.000;2022-12-07T04:06:28;26.90;;;19.30;;
28958;SDS011;16066;0.000;0.000;2022-12-07T04:08:54;27.83;;;17.73;;
28958;SDS011;16066;0.000;0.000;2022-12-07T04:11:20;29.27;;;19.87;;
28958;SDS011;16066;0.000;0.000;2022-12-07T04:13:45;30.10;;;19.53;;
28958;SDS011;16066;0.000;0.000;2022-12-07T04:16:30;27.00;;;19.80;;
28958;SDS011;16066;0.000;0.000;2022-12-07T04:18:55;29.67;;;19.00;;
28958;SDS011;16066;0.000;0.000;2022-12-07T04:21:21;29.67;;;20.63;;
28958;SDS011;16066;0.000;0.000;2022-12-07T04:23:46;26.40;;;18.43;;
28958;SDS011;16066;0.000;0.000;2022-12-07T04:26:12;31.23;;;20.27;;
28958;SDS011;16066;0.000;0.000;2022-12-07T04:28:37;33.63;;;21.10;;
28958;SDS011;16066;0.000;0.000;2022-12-07T04:31:03;29.03;;;20.00;;
28958;SDS011;16066;0.000;0.000;2022-12-07T04:33:28;30.67;;;19.67;;
28958;SDS011;16066;0.000;0.000;2022-12-07T04:35:54;32.40;;;20.97;;
28958;SDS011;16066;0.000;0.000;2022-12-07T04:38:19;32.10;;;21.30;;
28958;SDS011;16066;0.000;0.000;2022-12-07T04:40:45;28.47;;;20.93;;
28958;SDS011;16066;0.000;0.000;2022-12-07T04:43:10;29.30;;;19.60;;
28958;SDS011;16066;0.000;0.000;2022-12-07T04:45:36;27.47;;;18.67;;
28958;SDS011;16066;0.000;0.000;2022-12-07T04:48:01;29.90;;;17.90;;
28958;SDS011;16066;0.000;0.000;2022-12-07T04:50:27;34.47;;;20.77;;
28958;SDS011;16066;0.000;0.000;2022-12-07T04:52:52;28.13;;;19.07;;
28958;SDS011;16066;0.000;0.000;2022-12-07T04:55:18;29.70;;;19.50;;
28958;SDS011;16066;0.000;0.000;2022-12-07T04:57:43;28.33;;;20.63;;
28958;SDS011;16066;0.000;0.000;2022-12-07T05:00:09;29.50;;;19.60;;
28958;SDS011;16066;0.000;0.000;2022-12-07T05:02:35;27.90;;;19.40;;
28958;SDS011;16066;0.000;0.000;2022-12-07T05:05:00;32.00;;;20.70;;
28958;SDS011;16066;0.000;0.000;2022-12-07T05:07:26;32.67;;;20.80;;
28958;SDS011;16066;0.000;0.000;2022-12-07T05:09:51;27.90;;;18.43;;
28958;SDS011;16066;0.000;0.000;2022-12-07T05:12:17;26.10;;;17.97;;
28958;SDS011;16066;0.000;0.000;2022-12-07T05:14:42;25.90;;;17.07;;
28958;SDS011;16066;0.000;0.000;2022-12-07T05:17:08;25.43;;;17.50;;
28958;SDS011;16066;0.000;0.000;2022-12-07T05:19:33;25.10;;;17.03;;
28958;SDS011;16066;0.000;0.000;2022-12-07T05:21:59;24.67;;;16.17;;
28958;SDS011;16066;0.000;0.000;2022-12-07T05:24:24;24.27;;;16.10;;
28958;SDS011;16066;0.000;0.000;2022-12-07T05:26:50;21.80;;;15.80;;
28958;SDS011;16066;0.000;0.000;2022-12-07T05:29:16;22.90;;;15.33;;
28958;SDS011;16066;0.000;0.000;2022-12-07T05:31:42;23.50;;;16.27;;
28958;SDS011;16066;0.000;0.000;2022-12-07T05:34:08;24.53;;;17.30;;
28958;SDS011;16066;0.000;0.000;2022-12-07T05:36:34;26.83;;;16.77;;
28958;SDS011;16066;0.000;0.000;2022-12-07T05:39:00;20.87;;;14.40;;
28958;SDS011;16066;0.000;0.000;2022-12-07T05:41:25;24.57;;;16.00;;
28958;SDS011;16066;0.000;0.000;2022-12-07T05:44:10;24.63;;;16.20;;
28958;SDS011;16066;0.000;0.000;2022-12-07T05:46:35;24.67;;;16.43;;
28958;SDS011;16066;0.000;0.000;2022-12-07T05:49:01;20.10;;;14.73;;
28958;SDS011;16066;0.000;0.000;2022-12-07T05:51:27;21.73;;;15.13;;
28958;SDS011;16066;0.000;0.000;2022-12-07T05:53:52;26.87;;;17.23;;
28958;SDS011;16066;0.000;0.000;2022-12-07T05:56:18;24.47;;;15.70;;
28958;SDS011;16066;0.000;0.000;2022-12-07T05:58:43;25.07;;;17.07;;
28958;SDS011;16066;0.000;0.000;2022-12-07T06:01:28;22.70;;;15.47;;
28958;SDS011;16066;0.000;0.000;2022-12-07T06:03:53;20.03;;;14.53;;
28958;SDS011;16066;0.000;0.000;2022-12-07T06:06:19;26.20;;;16.60;;
28958;SDS011;16066;0.000;0.000;2022-12-07T06:08:44;23.40;;;15.87;;
28958;SDS011;16066;0.000;0.000;2022-12-07T06:11:10;23.70;;;16.30;;
28958;SDS011;16066;0.000;0.000;2022-12-07T06:13:54;23.43;;;16.43;;
28958;SDS011;16066;0.000;0.000;2022-12-07T06:16:20;23.70;;;16.67;;
28958;SDS011;16066;0.000;0.000;2022-12-07T06:18:45;26.37;;;16.53;;
28958;SDS011;16066;0.000;0.000;2022-12-07T06:21:11;21.67;;;15.40;;
28958;SDS011;16066;0.000;0.000;2022-12-07T06:23:36;23.63;;;16.67;;
28958;SDS011;16066;0.000;0.000;2022-12-07T06:26:02;23.60;;;16.77;;
28958;SDS011;16066;0.000;0.000;2022-12-07T06:28:27;23.33;;;17.20;;
28958;SDS011;16066;0.000;0.000;2022-12-07T06:30:56;22.10;;;15.60;;
28958;SDS011;16066;0.000;0.000;2022-12-07T06:33:26;24.20;;;16.90;;
28958;SDS011;16066;0.000;0.000;2022-12-07T06:35:52;24.10;;;17.00;;
28958;SDS011;16066;0.000;0.000;2022-12-07T06:38:17;24.60;;;15.80;;
28958;SDS011;16066;0.000;0.000;2022-12-07T06:40:43;25.53;;;16.50;;
28958;SDS011;16066;0.000;0.000;2022-12-07T06:43:08;21.97;;;16.00;;
28958;SDS011;16066;0.000;0.000;2022-12-07T06:45:34;22.57;;;15.47;;
28958;SDS011;16066;0.000;0.000;2022-12-07T06:48:00;20.93;;;14.97;;
28958;SDS011;16066;0.000;0.000;2022-12-07T06:50:25;25.60;;;17.13;;
28958;SDS011;16066;0.000;0.000;2022-12-07T06:52:51;23.30;;;17.07;;
28958;SDS011;16066;0.000;0.000;2022-12-07T06:55:17;24.30;;;16.27;;
28958;SDS011;16066;0.000;0.000;2022-12-07T06:57:43;22.27;;;15.00;;
28958;SDS011;16066;0.000;0.000;2022-12-07T07:00:09;20.27;;;14.67;;
28958;SDS011;16066;0.000;0.000;2022-12-07T07:02:35;24.37;;;17.10;;
28958;SDS011;16066;0.000;0.000;2022-12-07T07:05:01;22.80;;;16.50;;
28958;SDS011;16066;0.000;0.000;2022-12-07T07:07:26;22.60;;;15.60;;
28958;SDS011;16066;0.000;0.000;2022-12-07T07:09:52;23.43;;;16.07;;
28958;SDS011;16066;0.000;0.000;2022-12-07T07:12:17;23.07;;;16.00;;
28958;SDS011;16066;0.000;0.000;2022-12-07T07:14:43;23.30;;;15.00;;
28958;SDS011;16066;0.000;0.000;2022-12-07T07:17:08;26.43;;;16.73;;
28958;SDS011;16066;0.000;0.000;2022-12-07T07:19:34;22.13;;;15.33;;
28958;SDS011;16066;0.000;0.000;2022-12-07T07:21:59;20.83;;;14.67;;
28958;SDS011;16066;0.000;0.000;2022-12-07T07:24:25;22.97;;;15.67;;
28958;SDS011;16066;0.000;0.000;2022-12-07T07:26:51;22.50;;;14.30;;
28958;SDS011;16066;0.000;0.000;2022-12-07T07:29:16;22.73;;;14.87;;
28958;SDS011;16066;0.000;0.000;2022-12-07T07:31:42;20.97;;;14.20;;
28958;SDS011;16066;0.000;0.000;2022-12-07T07:34:07;23.73;;;16.00;;
28958;SDS011;16066;0.000;0.000;2022-12-07T07:36:33;19.70;;;14.17;;
28958;SDS011;16066;0.000;0.000;2022-12-07T07:38:58;19.80;;;13.77;;
28958;SDS011;16066;0.000;0.000;2022-12-07T07:41:23;20.17;;;14.27;;
28958;SDS011;16066;0.000;0.000;2022-12-07T07:43:49;19.50;;;14.50;;
28958;SDS011;16066;0.000;0.000;2022-12-07T07:46:14;18.73;;;13.60;;
28958;SDS011;16066;0.000;0.000;2022-12-07T07:48:40;21.80;;;13.67;;
28958;SDS011;16066;0.000;0.000;2022-12-07T07:51:06;19.30;;;13.60;;
28958;SDS011;16066;0.000;0.000;2022-12-07T07:53:32;19.10;;;13.00;;
28958;SDS011;16066;0.000;0.000;2022-12-07T07:55:58;21.10;;;14.20;;
28958;SDS011;16066;0.000;0.000;2022-12-07T07:58:23;20.07;;;13.00;;
28958;SDS011;16066;0.000;0.000;2022-12-07T08:00:49;19.30;;;13.67;;
28958;SDS011;16066;0.000;0.000;2022-12-07T08:03:15;19.67;;;13.40;;
28958;SDS011;16066;0.000;0.000;2022-12-07T08:05:40;21.73;;;12.27;;
28958;SDS011;16066;0.000;0.000;2022-12-07T08:08:06;21.33;;;12.57;;
28958;SDS011;16066;0.000;0.000;2022-12-07T08:10:31;19.73;;;12.10;;
28958;SDS011;16066;0.000;0.000;2022-12-07T08:12:57;17.23;;;12.77;;
28958;SDS011;16066;0.000;0.000;2022-12-07T08:15:36;19.67;;;12.30;;
28958;SDS011;16066;0.000;0.000;2022-12-07T08:18:03;19.97;;;12.27;;
28958;SDS011;16066;0.000;0.000;2022-12-07T08:20:29;16.07;;;11.60;;
28958;SDS011;16066;0.000;0.000;2022-12-07T08:22:56;16.63;;;12.13;;
28958;SDS011;16066;0.000;0.000;2022-12-07T08:25:21;16.60;;;11.93;;
28958;SDS011;16066;0.000;0.000;2022-12-07T08:27:47;18.17;;;13.17;;
28958;SDS011;16066;0.000;0.000;2022-12-07T08:30:14;17.67;;;12.00;;
28958;SDS011;16066;0.000;0.000;2022-12-07T08:32:39;17.67;;;12.10;;
28958;SDS011;16066;0.000;0.000;2022-12-07T08:35:05;17.37;;;11.80;;
28958;SDS011;16066;0.000;0.000;2022-12-07T08:37:31;15.77;;;11.17;;
28958;SDS011;16066;0.000;0.000;2022-12-07T08:39:57;15.87;;;11.53;;
28958;SDS011;16066;0.000;0.000;2022-12-07T08:42:23;16.53;;;11.83;;
28958;SDS011;16066;0.000;0.000;2022-12-07T08:44:52;18.40;;;12.23;;
28958;SDS011;16066;0.000;0.000;2022-12-07T08:47:18;16.80;;;11.20;;
28958;SDS011;16066;0.000;0.000;2022-12-07T08:49:45;16.20;;;11.37;;
28958;SDS011;16066;0.000;0.000;2022-12-07T08:52:13;18.83;;;12.53;;
28958;SDS011;16066;0.000;0.000;2022-12-07T08:54:38;14.60;;;10.50;;
28958;SDS011;16066;0.000;0.000;2022-12-07T08:57:05;14.40;;;10.30;;
28958;SDS011;16066;0.000;0.000;2022-12-07T08:59:32;14.30;;;10.70;;
28958;SDS011;16066;0.000;0.000;2022-12-07T09:02:00;13.87;;;9.60;;
28958;SDS011;16066;0.000;0.000;2022-12-07T09:04:26;16.70;;;10.60;;
28958;SDS011;16066;0.000;0.000;2022-12-07T09:06:52;13.90;;;10.10;;
28958;SDS011;16066;0.000;0.000;2022-12-07T09:09:19;13.43;;;9.70;;
28958;SDS011;16066;0.000;0.000;2022-12-07T09:11:44;14.67;;;9.70;;
28958;SDS011;16066;0.000;0.000;2022-12-07T09:14:10;14.90;;;9.90;;
28958;SDS011;16066;0.000;0.000;2022-12-07T09:16:37;14.10;;;9.07;;
28958;SDS011;16066;0.000;0.000;2022-12-07T09:19:03;12.60;;;8.97;;
28958;SDS011;16066;0.000;0.000;2022-12-07T09:21:29;12.67;;;9.47;;
28958;SDS011;16066;0.000;0.000;2022-12-07T09:23:55;11.67;;;8.23;;
28958;SDS011;16066;0.000;0.000;2022-12-07T09:26:20;12.57;;;9.90;;
28958;SDS011;16066;0.000;0.000;2022-12-07T09:28:46;12.80;;;9.23;;
28958;SDS011;16066;0.000;0.000;2022-12-07T09:31:12;13.80;;;9.10;;
28958;SDS011;16066;0.000;0.000;2022-12-07T09:33:37;14.43;;;10.27;;
28958;SDS011;16066;0.000;0.000;2022-12-07T09:36:03;13.30;;;9.20;;
28958;SDS011;16066;0.000;0.000;2022-12-07T09:38:29;13.03;;;8.63;;
28958;SDS011;16066;0.000;0.000;2022-12-07T09:40:57;14.03;;;9.27;;
28958;SDS011;16066;0.000;0.000;2022-12-07T09:43:28;12.10;;;8.90;;
28958;SDS011;16066;0.000;0.000;2022-12-07T09:45:54;14.87;;;8.90;;
28958;SDS011;16066;0.000;0.000;2022-12-07T09:48:34;13.20;;;7.80;;
28958;SDS011;16066;0.000;0.000;2022-12-07T09:51:02;12.03;;;8.20;;
28958;SDS011;16066;0.000;0.000;2022-12-07T09:53:36;11.77;;;8.53;;
28958;SDS011;16066;0.000;0.000;2022-12-07T09:56:03;15.80;;;8.73;;
28958;SDS011;16066;0.000;0.000;2022-12-07T09:58:29;11.30;;;7.80;;
28958;SDS011;16066;0.000;0.000;2022-12-07T10:01:05;11.57;;;7.93;;
28958;SDS011;16066;0.000;0.000;2022-12-07T10:03:36;14.20;;;7.83;;
28958;SDS011;16066;0.000;0.000;2022-12-07T10:06:04;12.20;;;8.20;;
28958;SDS011;16066;0.000;0.000;2022-12-07T10:08:31;12.27;;;8.47;;
28958;SDS011;16066;0.000;0.000;2022-12-07T10:10:57;13.30;;;8.57;;
28958;SDS011;16066;0.000;0.000;2022-12-07T10:16:02;12.40;;;7.77;;
28958;SDS011;16066;0.000;0.000;2022-12-07T10:21:01;9.60;;;7.63;;
28958;SDS011;16066;0.000;0.000;2022-12-07T10:23:27;13.60;;;7.90;;
28958;SDS011;16066;0.000;0.000;2022-12-07T10:25:52;10.23;;;7.53;;
28958;SDS011;16066;0.000;0.000;2022-12-07T10:28:20;11.57;;;8.00;;
28958;SDS011;16066;0.000;0.000;2022-12-07T10:30:50;10.77;;;7.63;;
28958;SDS011;16066;0.000;0.000;2022-12-07T10:33:58;12.80;;;8.47;;
28958;SDS011;16066;0.000;0.000;2022-12-07T10:36:22;14.40;;;7.60;;
28958;SDS011;16066;0.000;0.000;2022-12-07T10:39:32;12.37;;;8.27;;
28958;SDS011;16066;0.000;0.000;2022-12-07T10:41:57;8.90;;;6.67;;
28958;SDS011;16066;0.000;0.000;2022-12-07T10:44:31;11.70;;;8.37;;
28958;SDS011;16066;0.000;0.000;2022-12-07T10:50:02;11.10;;;8.10;;
28958;SDS011;16066;0.000;0.000;2022-12-07T11:00:46;11.03;;;7.77;;
28958;SDS011;16066;0.000;0.000;2022-12-07T11:08:59;13.93;;;8.67;;
28958;SDS011;16066;0.000;0.000;2022-12-07T11:11:59;12.20;;;8.23;;
28958;SDS011;16066;0.000;0.000;2022-12-07T11:17:20;13.83;;;8.50;;
28958;SDS011;16066;0.000;0.000;2022-12-07T11:33:40;12.80;;;8.70;;
28958;SDS011;16066;0.000;0.000;2022-12-07T11:36:17;12.97;;;8.73;;
28958;SDS011;16066;0.000;0.000;2022-12-07T11:41:27;16.33;;;10.27;;
28958;SDS011;16066;0.000;0.000;2022-12-07T11:46:40;13.90;;;9.80;;
28958;SDS011;16066;0.000;0.000;2022-12-07T11:51:45;14.90;;;9.90;;
28958;SDS011;16066;0.000;0.000;2022-12-07T11:54:30;14.83;;;9.80;;
28958;SDS011;16066;0.000;0.000;2022-12-07T11:57:02;14.93;;;9.77;;
28958;SDS011;16066;0.000;0.000;2022-12-07T11:59:41;14.40;;;9.90;;
28958;SDS011;16066;0.000;0.000;2022-12-07T12:02:15;13.37;;;9.30;;
28958;SDS011;16066;0.000;0.000;2022-12-07T12:04:51;13.30;;;8.67;;
28958;SDS011;16066;0.000;0.000;2022-12-07T12:07:24;14.13;;;10.20;;
28958;SDS011;16066;0.000;0.000;2022-12-07T12:10:02;13.33;;;9.60;;
28958;SDS011;16066;0.000;0.000;2022-12-07T12:20:46;15.70;;;9.77;;
28958;SDS011;16066;0.000;0.000;2022-12-07T12:23:34;12.90;;;9.33;;
28958;SDS011;16066;0.000;0.000;2022-12-07T12:26:23;14.07;;;9.47;;
28958;SDS011;16066;0.000;0.000;2022-12-07T12:28:55;15.20;;;9.23;;
28958;SDS011;16066;0.000;0.000;2022-12-07T12:33:52;15.13;;;8.93;;
28958;SDS011;16066;0.000;0.000;2022-12-07T12:44:01;11.27;;;8.73;;
28958;SDS011;16066;0.000;0.000;2022-12-07T12:49:14;13.23;;;8.33;;
28958;SDS011;16066;0.000;0.000;2022-12-07T13:02:29;12.63;;;8.60;;
28958;SDS011;16066;0.000;0.000;2022-12-07T13:05:14;12.43;;;8.10;;
28958;SDS011;16066;0.000;0.000;2022-12-07T13:15:35;17.03;;;8.07;;
28958;SDS011;16066;0.000;0.000;2022-12-07T13:20:59;11.60;;;7.13;;
28958;SDS011;16066;0.000;0.000;2022-12-07T13:23:29;10.90;;;7.70;;
28958;SDS011;16066;0.000;0.000;2022-12-07T13:26:04;14.57;;;8.50;;
28958;SDS011;16066;0.000;0.000;2022-12-07T13:31:45;12.27;;;8.20;;
28958;SDS011;16066;0.000;0.000;2022-12-07T13:34:38;11.37;;;8.03;;
28958;SDS011;16066;0.000;0.000;2022-12-07T13:37:19;11.07;;;8.17;;
28958;SDS011;16066;0.000;0.000;2022-12-07T13:39:51;13.70;;;7.83;;
28958;SDS011;16066;0.000;0.000;2022-12-07T13:44:54;10.53;;;7.33;;
28958;SDS011;16066;0.000;0.000;2022-12-07T13:47:25;9.10;;;6.67;;
28958;SDS011;16066;0.000;0.000;2022-12-07T13:49:56;11.97;;;7.80;;
28958;SDS011;16066;0.000;0.000;2022-12-07T13:57:30;11.37;;;7.90;;
28958;SDS011;16066;0.000;0.000;2022-12-07T14:00:02;11.10;;;7.37;;
28958;SDS011;16066;0.000;0.000;2022-12-07T14:02:30;12.90;;;8.37;;
28958;SDS011;16066;0.000;0.000;2022-12-07T14:10:25;11.20;;;8.30;;
28958;SDS011;16066;0.000;0.000;2022-12-07T14:16:03;11.97;;;7.70;;
28958;SDS011;16066;0.000;0.000;2022-12-07T14:18:52;12.27;;;7.63;;
28958;SDS011;16066;0.000;0.000;2022-12-07T14:21:19;11.83;;;7.80;;
28958;SDS011;16066;0.000;0.000;2022-12-07T14:26:44;13.13;;;8.40;;
28958;SDS011;16066;0.000;0.000;2022-12-07T14:31:55;11.90;;;8.13;;
28958;SDS011;16066;0.000;0.000;2022-12-07T14:34:23;12.50;;;7.50;;
28958;SDS011;16066;0.000;0.000;2022-12-07T14:36:48;10.43;;;7.03;;
28958;SDS011;16066;0.000;0.000;2022-12-07T14:39:14;10.47;;;7.50;;
28958;SDS011;16066;0.000;0.000;2022-12-07T14:41:40;13.50;;;8.63;;
28958;SDS011;16066;0.000;0.000;2022-12-07T14:44:18;10.27;;;7.67;;
28958;SDS011;16066;0.000;0.000;2022-12-07T14:46:45;13.20;;;8.33;;
28958;SDS011;16066;0.000;0.000;2022-12-07T14:49:11;12.20;;;7.60;;
28958;SDS011;16066;0.000;0.000;2022-12-07T14:51:37;12.63;;;8.53;;
28958;SDS011;16066;0.000;0.000;2022-12-07T14:54:05;13.83;;;9.20;;
28958;SDS011;16066;0.000;0.000;2022-12-07T14:56:36;12.33;;;8.57;;
28958;SDS011;16066;0.000;0.000;2022-12-07T14:59:01;16.97;;;9.60;;
28958;SDS011;16066;0.000;0.000;2022-12-07T15:01:27;14.80;;;8.60;;
28958;SDS011;16066;0.000;0.000;2022-12-07T15:03:52;14.03;;;8.80;;
28958;SDS011;16066;0.000;0.000;2022-12-07T15:06:18;14.17;;;8.13;;
28958;SDS011;16066;0.000;0.000;2022-12-07T15:08:44;14.70;;;10.27;;
28958;SDS011;16066;0.000;0.000;2022-12-07T15:11:13;13.10;;;9.57;;
28958;SDS011;16066;0.000;0.000;2022-12-07T15:13:40;16.87;;;10.00;;
28958;SDS011;16066;0.000;0.000;2022-12-07T15:16:24;15.70;;;10.27;;
28958;SDS011;16066;0.000;0.000;2022-12-07T15:18:50;15.40;;;10.23;;
28958;SDS011;16066;0.000;0.000;2022-12-07T15:21:16;15.87;;;9.77;;
28958;SDS011;16066;0.000;0.000;2022-12-07T15:23:42;12.73;;;9.57;;
28958;SDS011;16066;0.000;0.000;2022-12-07T15:26:09;14.57;;;10.57;;
28958;SDS011;16066;0.000;0.000;2022-12-07T15:28:35;16.17;;;10.73;;
28958;SDS011;16066;0.000;0.000;2022-12-07T15:31:00;17.43;;;11.33;;
28958;SDS011;16066;0.000;0.000;2022-12-07T15:33:26;16.50;;;11.60;;
28958;SDS011;16066;0.000;0.000;2022-12-07T15:35:51;17.40;;;11.43;;
28958;SDS011;16066;0.000;0.000;2022-12-07T15:38:17;20.20;;;12.77;;
28958;SDS011;16066;0.000;0.000;2022-12-07T15:40:46;16.73;;;11.47;;
28958;SDS011;16066;0.000;0.000;2022-12-07T15:43:11;17.03;;;11.00;;
28958;SDS011;16066;0.000;0.000;2022-12-07T15:45:56;17.63;;;11.73;;
28958;SDS011;16066;0.000;0.000;2022-12-07T15:48:21;16.70;;;12.23;;
28958;SDS011;16066;0.000;0.000;2022-12-07T15:50:47;20.93;;;12.63;;
28958;SDS011;16066;0.000;0.000;2022-12-07T15:53:12;16.90;;;11.57;;
28958;SDS011;16066;0.000;0.000;2022-12-07T15:55:38;18.20;;;11.60;;
28958;SDS011;16066;0.000;0.000;2022-12-07T15:58:05;17.70;;;12.67;;
28958;SDS011;16066;0.000;0.000;2022-12-07T16:00:30;19.47;;;12.87;;
28958;SDS011;16066;0.000;0.000;2022-12-07T16:02:56;18.63;;;12.50;;
28958;SDS011;16066;0.000;0.000;2022-12-07T16:05:21;19.27;;;13.00;;
28958;SDS011;16066;0.000;0.000;2022-12-07T16:07:47;18.83;;;13.10;;
28958;SDS011;16066;0.000;0.000;2022-12-07T16:10:13;18.63;;;12.37;;
28958;SDS011;16066;0.000;0.000;2022-12-07T16:12:38;28.33;;;11.20;;
28958;SDS011;16066;0.000;0.000;2022-12-07T16:15:04;15.70;;;10.70;;
28958;SDS011;16066;0.000;0.000;2022-12-07T16:17:30;18.90;;;11.97;;
28958;SDS011;16066;0.000;0.000;2022-12-07T16:19:55;17.53;;;11.27;;
28958;SDS011;16066;0.000;0.000;2022-12-07T16:22:22;16.20;;;10.70;;
28958;SDS011;16066;0.000;0.000;2022-12-07T16:24:48;16.63;;;10.90;;
28958;SDS011;16066;0.000;0.000;2022-12-07T16:27:13;17.67;;;11.20;;
28958;SDS011;16066;0.000;0.000;2022-12-07T16:29:39;18.47;;;11.50;;
28958;SDS011;16066;0.000;0.000;2022-12-07T16:32:05;17.80;;;11.07;;
28958;SDS011;16066;0.000;0.000;2022-12-07T16:34:30;15.10;;;10.67;;
28958;SDS011;16066;0.000;0.000;2022-12-07T16:36:57;15.43;;;11.10;;
28958;SDS011;16066;0.000;0.000;2022-12-07T16:39:22;19.40;;;12.13;;
28958;SDS011;16066;0.000;0.000;2022-12-07T16:41:49;15.83;;;10.83;;
28958;SDS011;16066;0.000;0.000;2022-12-07T16:44:14;20.23;;;12.30;;
28958;SDS011;16066;0.000;0.000;2022-12-07T16:46:40;16.87;;;11.80;;
28958;SDS011;16066;0.000;0.000;2022-12-07T16:49:08;17.90;;;11.60;;
28958;SDS011;16066;0.000;0.000;2022-12-07T16:51:38;17.33;;;12.10;;
28958;SDS011;16066;0.000;0.000;2022-12-07T16:54:04;15.77;;;10.20;;
28958;SDS011;16066;0.000;0.000;2022-12-07T16:56:29;17.17;;;11.70;;
28958;SDS011;16066;0.000;0.000;2022-12-07T16:58:57;23.50;;;12.07;;
28958;SDS011;16066;0.000;0.000;2022-12-07T17:01:23;17.20;;;10.53;;
28958;SDS011;16066;0.000;0.000;2022-12-07T17:03:49;17.73;;;11.17;;
28958;SDS011;16066;0.000;0.000;2022-12-07T17:06:25;17.43;;;11.67;;
28958;SDS011;16066;0.000;0.000;2022-12-07T17:08:52;16.80;;;11.47;;
28958;SDS011;16066;0.000;0.000;2022-12-07T17:11:19;15.77;;;10.80;;